Terminal Aerodrome Forecast
Issued by NWS Pocatello, ID

Home | Current Version | Previous Version | Text Only | Print | Product List | Glossary On
Versions: 1 2 3 4 5 6 7 8 9 10 11 12 13 14 15 16 17 18 19 20
000
FTUS45 KPIH 230500
TAFPIH
TAF
KPIH 230520Z 2306/2406 VRB05KT P6SM FEW070 BKN150
     FM231700 21010KT P6SM SCT090 BKN150
     FM232000 23014KT P6SM SCT090 BKN120
     FM240200 25008KT P6SM OVC100=

USA.gov is the U.S. government's official web portal to all federal, state and local government web resources and services.